Aérodrome de la Montagne Noire

LFMG · Upper Garonne, Occitanie, 法国

罗盘
风向 的 风向 的 风向 到 风向 250° Aérodrome de la Montagne Noire 18/36
风: 8 kt, 3 beaufort

3 kt

7 kt
改变
0 1.000 2.000 3.000 4.000 5.000
没有观察到明显的云
SPECI LFBO 280430Z AUTO 25008KT 210V270 9999 -RA NSC 09/08 Q1017 TEMPO 4000 -RA

METAR Aérodrome de la Montagne Noire - LFMG

Aérodrome de la Montagne Noire是,法国中的小机场。 该机场有3条跑道: 18/36, 3/21 和 12/30. 该领域的国际民航组织标志是LFMG.

这份报告是针对2022年11月28日 05:30, 当地时间在Toulouse-Blagnac Airport进行的。

机场观察

风向为250°,速度为8 kt。 风向在210°和270°之间变化。

可见度为10 km 或者更多。

有没有观察到明显的云。 没有观察到天花板。

当前天气为光 雨。 温度为9 °C,阵风为5 °C。 露点为8 °C,相对湿度为94%。 海平面上的气压为1017 hPa (QNH)。

发展趋势

  • 暂时的

    可变方向的风很小或没有。 可见性变为4 km。 重大天气:光 雨。

白天

今天,太阳从08:01升起,在17:18降落。 这适用于Aérodrome de la Montagne Noire,世界夏令时可能有所不同。 当地时间与世界标准时间之间的时差为+1 小时。 当前,没有夏令时有效。

公司介绍

我们没有关于这个机场的公司信息。

体会

到Vliegles.nl去找飞行课程,跳伞和其他飞行体验。 浏览页面,了解Aérodrome de la Montagne Noire附近所有可用的活动。 你也可以使用搜索功能来寻找你所在地附近的特定飞行课程、跳伞或其他飞行体验。

跑道

Id 标题 侧风 逆风 侧风 %
18/36 004°-184° 7 kt 3 kt 91 %
3/21 034°-214° 5 kt 6 kt 59 %
12/30 121°-301° 6 kt 5 kt 78 %

逆风成分最大的方向会被突出显示,并用于横风计算。 这并不一定意味着这个方向在使用。

乌云

- NSC 没有观察到明显的云

温度 & 天气

天气 光 雨
温度 9 °C
露点 8 °C
相对湿度 94%
风寒 5 °C
Kp-index 4 (0-9)

白天

日出
08:04 (1:45)
中午
12:42
日落
17:20

小工具

你想在你的网站上有一个关于Aérodrome de la Montagne Noire的当前航空天气(METAR)的小部件吗?

显示HTML代码

我们和第三方通过cookies跟踪您在我们网站上的互联网行为。如果你继续,我们认为你同意我们的饼干政策